Time;durP1;ratioP1;P1;durP2;ratioP2;P2;SDS_P1;SDS_P2;PMS_P1;PMS_P2;Temp;Humidity;BMP_temperature;BMP_pressure;BME280_temperature;BME280_humidity;BME280_pressure;Samples;Min_cycle;Max_cycle;Signal;HPM_P1;HPM_P2
2021/12/28 00:00:58;;;;;;;15.93;8.17;;;6.30;90.00;;;;;;5052240;28;20236;-75
2021/12/28 00:03:27;;;;;;;14.10;7.90;;;6.30;90.00;;;;;;5057652;28;20281;-75
2021/12/28 00:05:56;;;;;;;15.23;8.33;;;6.30;90.00;;;;;;5062798;28;20206;-75
2021/12/28 00:08:24;;;;;;;16.73;8.87;;;6.30;90.30;;;;;;5061382;28;20196;-75
2021/12/28 00:10:55;;;;;;;17.47;8.33;;;6.30;89.90;;;;;;5058136;28;20230;-74
2021/12/28 00:13:24;;;;;;;15.97;8.23;;;6.30;90.00;;;;;;5067122;28;20624;-74
2021/12/28 00:16:13;;;;;;;13.20;7.57;;;6.30;89.90;;;;;;5051439;28;20226;-74
2021/12/28 00:18:41;;;;;;;16.57;8.80;;;6.30;89.90;;;;;;5055208;28;20199;-74
2021/12/28 00:21:10;;;;;;;15.23;8.50;;;6.30;89.90;;;;;;5056584;28;20206;-74
2021/12/28 00:23:39;;;;;;;12.60;7.57;;;6.30;89.90;;;;;;5063883;28;20203;-74
2021/12/28 00:26:12;;;;;;;15.37;8.17;;;6.30;90.00;;;;;;5060925;28;20195;-74
2021/12/28 00:28:41;;;;;;;16.17;8.53;;;6.30;89.90;;;;;;5066583;28;20192;-74
2021/12/28 00:31:11;;;;;;;14.60;8.37;;;6.30;89.90;;;;;;5065378;28;20214;-74
2021/12/28 00:33:40;;;;;;;12.77;7.83;;;6.30;89.90;;;;;;5065176;28;20726;-74
2021/12/28 00:36:08;;;;;;;14.60;7.83;;;6.30;90.00;;;;;;5061842;28;20733;-74
2021/12/28 00:38:37;;;;;;;14.07;7.70;;;6.30;89.90;;;;;;5064872;28;20286;-74
2021/12/28 00:41:05;;;;;;;15.10;8.83;;;6.30;89.90;;;;;;5060789;28;20196;-75
2021/12/28 00:43:36;;;;;;;15.90;8.50;;;6.30;89.90;;;;;;5063733;28;20182;-75
2021/12/28 00:46:06;;;;;;;14.67;8.27;;;6.30;89.90;;;;;;5056272;28;20191;-75
2021/12/28 00:48:35;;;;;;;12.53;8.30;;;6.30;89.80;;;;;;5050947;28;20231;-75
2021/12/28 00:51:04;;;;;;;14.87;8.87;;;6.30;90.20;;;;;;5061221;28;20847;-75
2021/12/28 00:53:33;;;;;;;12.77;8.17;;;6.20;89.70;;;;;;5063596;28;20197;-75
2021/12/28 00:56:02;;;;;;;16.20;9.53;;;6.20;89.80;;;;;;5056389;28;20746;-75
2021/12/28 00:58:31;;;;;;;13.87;8.53;;;6.20;89.80;;;;;;5060357;28;20197;-75
2021/12/28 01:01:01;;;;;;;14.80;8.83;;;6.20;89.90;;;;;;5064220;28;20751;-76
2021/12/28 01:03:34;;;;;;;18.47;9.80;;;6.20;89.90;;;;;;5058630;28;20182;-75
2021/12/28 01:06:03;;;;;;;16.13;9.23;;;6.20;89.90;;;;;;5053665;28;20186;-75
2021/12/28 01:08:32;;;;;;;14.07;8.43;;;6.20;89.90;;;;;;5052175;28;20651;-75
2021/12/28 01:11:01;;;;;;;14.07;8.63;;;6.20;90.00;;;;;;5057293;28;20196;-75
2021/12/28 01:13:29;;;;;;;14.37;9.13;;;6.20;90.00;;;;;;5045983;28;20213;-75
2021/12/28 01:15:58;;;;;;;14.00;8.37;;;6.20;90.00;;;;;;5052324;28;20202;-75
2021/12/28 01:18:28;;;;;;;14.17;8.53;;;6.20;90.00;;;;;;5062976;28;20225;-75
2021/12/28 01:20:56;;;;;;;18.37;9.40;;;6.20;90.00;;;;;;5054884;28;20667;-76
2021/12/28 01:23:26;;;;;;;14.80;8.67;;;6.20;90.00;;;;;;5059846;28;20197;-75
2021/12/28 01:25:54;;;;;;;15.70;9.37;;;6.20;90.00;;;;;;5058717;28;20277;-76
2021/12/28 01:28:23;;;;;;;14.93;9.47;;;6.20;90.00;;;;;;5061746;28;20205;-76
2021/12/28 01:30:51;;;;;;;17.67;9.53;;;6.20;90.00;;;;;;5057113;28;20670;-76
2021/12/28 01:33:19;;;;;;;14.87;8.70;;;6.20;90.00;;;;;;5060331;28;20235;-75
2021/12/28 01:35:50;;;;;;;15.07;9.13;;;6.20;90.00;;;;;;5059302;28;20186;-76
2021/12/28 01:38:19;;;;;;;17.43;9.43;;;6.20;90.00;;;;;;5063710;28;20212;-75
2021/12/28 01:40:47;;;;;;;17.07;9.37;;;6.20;90.00;;;;;;5063649;28;20220;-75
2021/12/28 01:43:18;;;;;;;17.17;9.07;;;6.20;89.90;;;;;;5056853;28;20191;-77
2021/12/28 01:45:49;;;;;;;17.93;9.43;;;6.20;90.00;;;;;;5061500;28;20420;-75
2021/12/28 01:48:21;;;;;;;15.67;8.83;;;6.20;90.00;;;;;;5058647;28;20198;-75
2021/12/28 01:50:53;;;;;;;14.13;8.53;;;6.20;90.00;;;;;;5054338;28;20179;-76
2021/12/28 01:53:22;;;;;;;14.87;8.87;;;6.20;90.00;;;;;;5060995;28;20195;-76
2021/12/28 01:55:52;;;;;;;14.23;8.87;;;6.20;90.00;;;;;;5053672;28;20209;-76
2021/12/28 01:58:21;;;;;;;12.70;8.10;;;6.20;90.00;;;;;;5050478;28;20206;-75
2021/12/28 02:00:50;;;;;;;15.03;9.30;;;6.20;90.00;;;;;;5047462;28;20204;-75
2021/12/28 02:03:21;;;;;;;15.23;8.63;;;6.20;90.00;;;;;;5052532;28;20191;-75
2021/12/28 02:05:51;;;;;;;14.07;8.77;;;6.20;90.00;;;;;;5054821;28;20178;-75
2021/12/28 02:08:20;;;;;;;16.00;9.07;;;6.30;90.00;;;;;;5061587;28;20198;-75
2021/12/28 02:10:50;;;;;;;16.80;8.67;;;6.20;90.00;;;;;;5059344;28;20203;-75
2021/12/28 02:13:20;;;;;;;15.13;9.23;;;6.30;90.00;;;;;;5062433;28;20186;-75
2021/12/28 02:15:48;;;;;;;14.77;8.27;;;6.30;89.90;;;;;;5063881;28;20183;-76
2021/12/28 02:18:21;;;;;;;17.07;9.07;;;6.20;89.90;;;;;;5061493;28;20219;-76
2021/12/28 02:20:52;;;;;;;15.47;8.50;;;6.30;90.00;;;;;;5062962;28;20186;-76
2021/12/28 02:23:21;;;;;;;18.83;9.37;;;6.30;90.00;;;;;;5056447;28;20213;-76
2021/12/28 02:25:49;;;;;;;15.80;8.37;;;6.30;90.00;;;;;;5055513;28;20645;-76
2021/12/28 02:28:18;;;;;;;16.63;8.70;;;6.20;89.90;;;;;;5048905;28;20194;-77
2021/12/28 02:30:49;;;;;;;16.50;8.70;;;6.20;89.90;;;;;;5056476;28;20202;-77
2021/12/28 02:33:23;;;;;;;15.03;8.50;;;6.20;90.00;;;;;;5044618;28;20227;-76
2021/12/28 02:35:56;;;;;;;15.47;8.27;;;6.20;89.90;;;;;;5056196;28;20306;-76
2021/12/28 02:38:24;;;;;;;14.97;7.83;;;6.20;89.90;;;;;;5057114;28;20210;-76
2021/12/28 02:40:53;;;;;;;14.33;7.83;;;6.20;89.90;;;;;;5062519;28;20201;-77
2021/12/28 02:43:21;;;;;;;14.37;8.30;;;6.20;89.90;;;;;;5053871;28;20257;-77
2021/12/28 02:45:52;;;;;;;15.60;7.87;;;6.20;90.00;;;;;;5052920;28;20240;-77
2021/12/28 02:48:22;;;;;;;15.50;8.20;;;6.20;90.00;;;;;;5051877;28;20915;-77
2021/12/28 02:50:54;;;;;;;15.93;8.93;;;6.20;90.00;;;;;;5052940;28;20198;-76
2021/12/28 02:53:23;;;;;;;14.60;7.90;;;6.20;90.00;;;;;;5058462;28;20213;-76
2021/12/28 02:55:52;;;;;;;15.40;7.80;;;6.20;90.00;;;;;;5052894;28;20195;-77
2021/12/28 02:58:28;;;;;;;14.57;7.23;;;6.20;90.00;;;;;;5055211;28;20234;-77
2021/12/28 03:00:59;;;;;;;12.87;7.50;;;6.20;90.00;;;;;;5056827;28;20204;-77
2021/12/28 03:03:30;;;;;;;14.83;7.90;;;6.20;90.00;;;;;;5051247;28;20209;-77
2021/12/28 03:06:01;;;;;;;14.23;7.50;;;6.20;90.00;;;;;;5059154;28;20217;-77
2021/12/28 03:08:31;;;;;;;13.80;7.47;;;6.30;90.00;;;;;;5062254;28;20198;-77
2021/12/28 03:11:02;;;;;;;14.20;7.07;;;6.30;90.00;;;;;;5056962;28;20202;-77
2021/12/28 03:13:33;;;;;;;14.23;7.43;;;6.30;90.00;;;;;;5058759;28;20188;-76
2021/12/28 03:16:01;;;;;;;14.03;7.27;;;6.20;89.90;;;;;;5054930;28;20190;-76
2021/12/28 03:18:30;;;;;;;15.43;7.57;;;6.30;90.00;;;;;;5060986;28;20214;-77
2021/12/28 03:21:00;;;;;;;15.73;7.77;;;6.30;90.00;;;;;;5060047;28;20205;-76
2021/12/28 03:23:29;;;;;;;12.43;7.63;;;6.30;90.00;;;;;;5062289;28;20186;-76
2021/12/28 03:25:58;;;;;;;17.33;8.10;;;6.30;89.90;;;;;;5052719;28;20199;-76
2021/12/28 03:28:29;;;;;;;13.50;7.60;;;6.30;89.90;;;;;;5063438;28;20203;-76
2021/12/28 03:31:00;;;;;;;13.93;7.63;;;6.30;89.80;;;;;;5060136;28;20190;-76
2021/12/28 03:33:31;;;;;;;14.53;7.43;;;6.30;89.80;;;;;;5059715;28;20306;-76
2021/12/28 03:36:01;;;;;;;12.83;7.17;;;6.30;89.80;;;;;;5061003;28;20198;-75
2021/12/28 03:38:29;;;;;;;14.40;7.90;;;6.30;90.20;;;;;;5043207;28;20231;-76
2021/12/28 03:40:58;;;;;;;16.50;8.37;;;6.30;89.90;;;;;;5060375;28;20194;-76
2021/12/28 03:43:27;;;;;;;21.77;9.10;;;6.30;90.30;;;;;;5055021;28;20202;-75
2021/12/28 03:45:55;;;;;;;18.43;9.30;;;6.30;89.90;;;;;;5052090;28;20664;-75
2021/12/28 03:48:24;;;;;;;17.67;8.50;;;6.30;89.90;;;;;;5055825;28;20192;-75
2021/12/28 03:50:52;;;;;;;18.50;8.27;;;6.30;89.90;;;;;;5056454;28;20198;-75
2021/12/28 03:53:22;;;;;;;18.70;9.67;;;6.30;89.90;;;;;;5057577;28;20190;-75
2021/12/28 03:55:50;;;;;;;17.00;7.57;;;6.30;89.90;;;;;;5060637;28;20201;-75
2021/12/28 03:58:19;;;;;;;18.80;8.27;;;6.30;90.00;;;;;;5061256;28;20218;-75
2021/12/28 04:00:49;;;;;;;17.97;7.60;;;6.30;90.00;;;;;;5059465;28;20574;-75
2021/12/28 04:03:18;;;;;;;18.40;8.03;;;6.30;89.90;;;;;;5056587;28;20317;-75
2021/12/28 04:05:46;;;;;;;25.53;9.97;;;6.30;89.90;;;;;;5053546;28;20201;-75
2021/12/28 04:08:21;;;;;;;18.13;7.93;;;6.30;89.90;;;;;;5044901;28;20200;-75
2021/12/28 04:10:55;;;;;;;17.13;8.20;;;6.40;90.00;;;;;;5046125;28;20193;-75
2021/12/28 04:13:24;;;;;;;19.73;8.47;;;6.40;90.00;;;;;;5061020;28;20200;-75
2021/12/28 04:15:53;;;;;;;18.73;8.23;;;6.40;90.00;;;;;;5057890;28;20192;-75
2021/12/28 04:18:22;;;;;;;20.37;8.67;;;6.40;90.00;;;;;;5052762;28;20310;-75
2021/12/28 04:20:50;;;;;;;19.50;8.70;;;6.40;90.00;;;;;;5057364;28;20209;-75
2021/12/28 04:23:19;;;;;;;20.87;9.33;;;6.40;90.00;;;;;;5058836;28;20196;-75
2021/12/28 04:25:47;;;;;;;20.37;8.80;;;6.40;90.00;;;;;;5052283;28;20711;-75
2021/12/28 04:28:17;;;;;;;18.00;8.47;;;6.40;89.80;;;;;;5056286;28;20213;-74
2021/12/28 04:30:45;;;;;;;19.10;8.90;;;6.40;89.80;;;;;;5048840;28;20195;-75
2021/12/28 04:33:13;;;;;;;18.33;7.90;;;6.40;89.90;;;;;;5043859;28;20234;-76
2021/12/28 04:35:42;;;;;;;20.67;8.83;;;6.40;89.90;;;;;;5051821;28;20640;-74
2021/12/28 04:38:10;;;;;;;20.33;9.50;;;6.40;89.80;;;;;;5058269;28;20531;-75
2021/12/28 04:40:39;;;;;;;19.27;8.63;;;6.40;89.80;;;;;;5059704;28;20203;-75
2021/12/28 04:43:08;;;;;;;20.83;9.03;;;6.40;89.80;;;;;;5064931;28;20197;-75
2021/12/28 04:45:39;;;;;;;17.00;9.03;;;6.40;89.80;;;;;;5064566;28;20186;-75
2021/12/28 04:48:08;;;;;;;16.13;8.50;;;6.40;89.80;;;;;;5054345;28;20183;-74
2021/12/28 04:50:40;;;;;;;20.57;9.70;;;6.40;89.90;;;;;;5054786;28;20213;-74
2021/12/28 04:53:11;;;;;;;19.27;9.33;;;6.40;89.80;;;;;;5063213;28;20767;-75
2021/12/28 04:55:41;;;;;;;21.70;9.67;;;6.40;89.80;;;;;;5060831;28;20761;-75
2021/12/28 04:58:10;;;;;;;19.87;9.67;;;6.40;89.80;;;;;;5059468;28;20723;-75
2021/12/28 05:00:40;;;;;;;26.07;9.80;;;6.40;89.90;;;;;;5059208;28;20199;-75
2021/12/28 05:03:10;;;;;;;20.53;9.67;;;6.40;89.90;;;;;;5059627;28;20202;-74
2021/12/28 05:05:43;;;;;;;26.83;9.67;;;6.40;89.90;;;;;;5053087;28;20203;-74
2021/12/28 05:08:12;;;;;;;18.80;8.83;;;6.40;89.90;;;;;;5052671;28;20201;-74
2021/12/28 05:10:41;;;;;;;29.50;10.47;;;6.40;89.90;;;;;;5058231;28;20191;-75
2021/12/28 05:13:10;;;;;;;24.70;9.53;;;6.40;89.90;;;;;;5064157;28;20206;-75
2021/12/28 05:15:42;;;;;;;29.80;10.00;;;6.40;90.00;;;;;;5063815;28;20727;-74
2021/12/28 05:18:12;;;;;;;27.87;10.40;;;6.40;90.00;;;;;;5062596;28;20202;-75
2021/12/28 05:20:41;;;;;;;23.90;9.57;;;6.30;90.00;;;;;;5054206;28;20738;-75
2021/12/28 05:23:10;;;;;;;25.93;10.13;;;6.30;90.00;;;;;;5058721;28;20210;-75
2021/12/28 05:25:38;;;;;;;24.50;10.23;;;6.30;90.00;;;;;;5049244;28;20199;-75
2021/12/28 05:28:07;;;;;;;22.43;9.83;;;6.30;90.00;;;;;;5062229;28;20578;-74
2021/12/28 05:30:36;;;;;;;24.60;9.77;;;6.30;90.00;;;;;;5056274;28;20421;-74
2021/12/28 05:33:07;;;;;;;19.00;8.53;;;6.30;90.00;;;;;;5049295;28;20214;-74
2021/12/28 05:35:36;;;;;;;22.93;9.03;;;6.30;90.10;;;;;;5055033;28;20206;-75
2021/12/28 05:38:04;;;;;;;19.90;8.37;;;6.30;90.10;;;;;;5047092;28;20223;-74
2021/12/28 05:40:32;;;;;;;22.87;8.30;;;6.30;90.10;;;;;;5055850;28;20297;-74
2021/12/28 05:43:01;;;;;;;19.40;8.57;;;6.30;90.10;;;;;;5048759;28;20192;-74
2021/12/28 05:45:29;;;;;;;22.80;10.47;;;6.30;90.10;;;;;;5052817;28;20183;-74
2021/12/28 05:47:58;;;;;;;25.23;9.77;;;6.20;90.10;;;;;;5056142;28;20202;-74
2021/12/28 05:50:28;;;;;;;21.27;8.87;;;6.30;90.10;;;;;;5059136;28;20198;-74
2021/12/28 05:52:56;;;;;;;20.40;8.90;;;6.30;90.20;;;;;;5056837;28;20192;-74
2021/12/28 05:55:25;;;;;;;18.33;8.03;;;6.20;90.20;;;;;;5053808;28;20193;-74
2021/12/28 05:57:53;;;;;;;23.83;8.77;;;6.20;90.20;;;;;;5050339;28;20192;-74
2021/12/28 06:00:24;;;;;;;19.87;9.30;;;6.20;90.20;;;;;;5057529;28;20222;-74
2021/12/28 06:02:52;;;;;;;21.30;8.10;;;6.20;90.20;;;;;;5055144;28;20644;-73
2021/12/28 06:05:21;;;;;;;18.50;8.00;;;6.20;90.20;;;;;;5065884;28;20293;-75
2021/12/28 06:07:51;;;;;;;19.17;8.20;;;6.20;90.30;;;;;;5061939;28;20191;-74
2021/12/28 06:10:19;;;;;;;21.73;8.70;;;6.20;90.30;;;;;;5053007;28;20567;-74
2021/12/28 06:12:48;;;;;;;20.93;8.63;;;6.20;90.30;;;;;;5066722;28;20190;-74
2021/12/28 06:15:16;;;;;;;19.77;8.00;;;6.20;90.30;;;;;;5081512;28;20289;-74
2021/12/28 06:17:44;;;;;;;18.77;8.37;;;6.30;90.30;;;;;;5064504;28;20200;-74
2021/12/28 06:20:13;;;;;;;22.33;9.43;;;6.30;90.30;;;;;;5058216;28;20703;-74
2021/12/28 06:22:41;;;;;;;21.60;8.27;;;6.30;90.30;;;;;;5080726;28;20186;-74
2021/12/28 06:25:14;;;;;;;19.63;8.33;;;6.30;90.30;;;;;;5051025;28;20767;-76
2021/12/28 06:27:42;;;;;;;18.07;8.07;;;6.30;90.30;;;;;;5058147;28;20208;-74
2021/12/28 06:30:11;;;;;;;17.23;8.30;;;6.30;90.30;;;;;;5056448;28;20232;-74
2021/12/28 06:32:40;;;;;;;23.03;8.43;;;6.30;90.30;;;;;;5060345;28;20294;-74
2021/12/28 06:35:10;;;;;;;20.00;9.47;;;6.30;90.30;;;;;;5052621;28;20179;-73
2021/12/28 06:37:38;;;;;;;20.23;8.53;;;6.30;90.30;;;;;;5063795;28;20194;-73
2021/12/28 06:40:08;;;;;;;24.73;9.40;;;6.30;90.30;;;;;;5063750;28;20247;-73
2021/12/28 06:42:38;;;;;;;21.93;9.40;;;6.30;90.30;;;;;;5063764;28;20188;-73
2021/12/28 06:45:08;;;;;;;20.67;8.57;;;6.30;90.30;;;;;;5064218;28;20178;-74
2021/12/28 06:47:38;;;;;;;21.23;9.60;;;6.30;90.30;;;;;;5070669;28;20784;-74
2021/12/28 06:50:08;;;;;;;25.80;9.37;;;6.40;90.40;;;;;;5051834;28;20208;-74
2021/12/28 06:52:36;;;;;;;22.80;10.00;;;6.40;90.40;;;;;;5045458;28;20280;-74
2021/12/28 06:55:05;;;;;;;22.70;10.13;;;6.50;90.40;;;;;;5050708;28;20195;-74
2021/12/28 06:57:34;;;;;;;21.97;10.63;;;6.50;90.30;;;;;;5052859;28;20191;-73
2021/12/28 07:00:08;;;;;;;23.07;9.53;;;6.50;90.30;;;;;;5056617;28;20235;-74
2021/12/28 07:02:36;;;;;;;24.60;9.50;;;6.50;90.20;;;;;;5062987;28;20641;-73
2021/12/28 07:05:07;;;;;;;21.03;8.80;;;6.60;90.20;;;;;;5059740;28;20230;-73
2021/12/28 07:07:35;;;;;;;23.13;8.33;;;6.60;90.20;;;;;;5055416;28;20194;-74
2021/12/28 07:10:06;;;;;;;21.43;9.47;;;6.60;90.20;;;;;;5041553;28;20210;-74
2021/12/28 07:12:35;;;;;;;18.47;8.97;;;6.60;90.20;;;;;;5049580;28;20671;-75
2021/12/28 07:15:06;;;;;;;17.07;8.03;;;6.70;90.10;;;;;;5044471;28;20200;-73
2021/12/28 07:17:34;;;;;;;16.47;8.30;;;6.70;90.10;;;;;;5054886;28;20188;-74
2021/12/28 07:20:03;;;;;;;20.40;9.13;;;6.70;90.00;;;;;;5060979;28;20230;-74
2021/12/28 07:22:36;;;;;;;21.03;8.43;;;6.70;90.00;;;;;;5060598;28;20694;-74
2021/12/28 07:25:06;;;;;;;17.13;8.33;;;6.70;89.80;;;;;;5046629;28;20213;-74
2021/12/28 07:27:35;;;;;;;23.90;8.47;;;6.80;90.00;;;;;;5062394;28;20191;-75
2021/12/28 07:30:08;;;;;;;22.03;8.97;;;6.80;90.00;;;;;;5042682;28;20710;-74
2021/12/28 07:32:37;;;;;;;18.40;7.97;;;6.80;90.00;;;;;;5046775;28;20198;-74
2021/12/28 07:35:07;;;;;;;26.40;8.17;;;6.90;89.80;;;;;;5058476;28;20196;-76
2021/12/28 07:37:35;;;;;;;21.63;8.57;;;6.90;89.70;;;;;;5062159;28;20846;-76
2021/12/28 07:40:04;;;;;;;25.73;9.33;;;6.90;89.60;;;;;;5060310;28;20224;-76
2021/12/28 07:42:33;;;;;;;24.17;9.50;;;7.00;89.60;;;;;;5060448;28;20196;-74
2021/12/28 07:45:01;;;;;;;21.38;8.40;;;7.00;89.50;;;;;;5057901;28;21344;-76
2021/12/28 07:47:31;;;;;;;20.57;8.40;;;7.00;89.50;;;;;;5063247;28;20256;-76
2021/12/28 07:50:06;;;;;;;18.50;8.83;;;7.10;89.40;;;;;;5082854;28;20588;-75
2021/12/28 07:52:34;;;;;;;27.23;9.10;;;7.10;89.20;;;;;;5071489;28;20193;-76
2021/12/28 07:55:03;;;;;;;24.03;8.93;;;7.10;89.20;;;;;;5061813;28;20208;-75
2021/12/28 07:57:32;;;;;;;17.00;8.20;;;7.20;89.10;;;;;;5061323;28;20248;-76
2021/12/28 08:00:01;;;;;;;16.27;7.37;;;7.20;88.90;;;;;;5063256;28;20206;-75
2021/12/28 08:02:31;;;;;;;11.70;5.93;;;7.20;88.60;;;;;;5053583;28;20845;-76
2021/12/28 08:04:59;;;;;;;18.13;7.17;;;7.20;88.60;;;;;;5056114;28;20273;-75
2021/12/28 08:07:27;;;;;;;13.87;6.47;;;7.20;88.40;;;;;;5061012;28;20196;-75
2021/12/28 08:09:56;;;;;;;13.93;6.33;;;7.20;88.40;;;;;;5060438;28;20644;-76
2021/12/28 08:12:24;;;;;;;14.63;6.80;;;7.30;88.40;;;;;;5061649;28;20215;-77
2021/12/28 08:14:52;;;;;;;16.07;7.33;;;7.30;88.10;;;;;;5061014;28;20188;-77
2021/12/28 08:17:21;;;;;;;19.07;7.47;;;7.30;88.10;;;;;;5066188;28;20193;-75
2021/12/28 08:19:54;;;;;;;19.20;7.63;;;7.30;88.10;;;;;;5066312;28;20396;-76
2021/12/28 08:22:22;;;;;;;19.13;7.90;;;7.30;88.30;;;;;;5065475;28;20879;-75
2021/12/28 08:24:51;;;;;;;17.43;8.20;;;7.40;88.40;;;;;;5064341;28;20649;-75
2021/12/28 08:27:19;;;;;;;15.10;6.63;;;7.40;88.40;;;;;;5066342;28;20358;-76
2021/12/28 08:29:47;;;;;;;16.80;6.90;;;7.40;88.30;;;;;;5065019;28;20195;-76
2021/12/28 08:32:15;;;;;;;16.50;7.93;;;7.40;88.20;;;;;;5065668;28;20196;-75
2021/12/28 08:34:44;;;;;;;18.73;8.33;;;7.50;88.20;;;;;;5058713;28;20221;-76
2021/12/28 08:37:19;;;;;;;18.37;7.50;;;7.50;88.30;;;;;;5054300;28;20676;-76
2021/12/28 08:39:47;;;;;;;23.80;9.03;;;7.50;88.30;;;;;;5055332;28;20189;-76
2021/12/28 08:42:16;;;;;;;19.63;7.70;;;7.60;88.20;;;;;;5065960;28;20228;-77
2021/12/28 08:44:45;;;;;;;18.73;7.17;;;7.60;88.20;;;;;;5059013;28;20188;-77
2021/12/28 08:47:13;;;;;;;20.03;8.17;;;7.60;88.00;;;;;;5065882;28;20198;-76
2021/12/28 08:49:42;;;;;;;21.20;8.83;;;7.60;88.00;;;;;;5073596;28;20212;-75
2021/12/28 08:52:10;;;;;;;23.37;9.83;;;7.70;88.00;;;;;;5065784;28;20668;-76
2021/12/28 08:54:40;;;;;;;20.93;8.33;;;7.70;88.00;;;;;;5064930;28;20190;-76
2021/12/28 08:57:08;;;;;;;17.80;8.53;;;7.70;87.80;;;;;;5060327;28;20593;-75
2021/12/28 08:59:37;;;;;;;23.77;10.63;;;7.80;87.80;;;;;;5055851;28;20197;-75
2021/12/28 09:02:07;;;;;;;23.43;9.87;;;7.80;87.50;;;;;;5060808;28;20234;-75
2021/12/28 09:04:42;;;;;;;21.47;9.67;;;7.80;87.40;;;;;;5063863;28;20243;-76
2021/12/28 09:07:11;;;;;;;21.80;8.77;;;7.90;87.40;;;;;;5061820;28;20192;-76
2021/12/28 09:09:41;;;;;;;30.67;10.63;;;7.80;87.10;;;;;;5048053;28;20199;-76
2021/12/28 09:12:11;;;;;;;21.07;9.27;;;7.90;87.20;;;;;;5065660;28;20873;-76
2021/12/28 09:14:40;;;;;;;28.77;10.93;;;7.90;87.20;;;;;;5064431;28;20181;-76
2021/12/28 09:17:09;;;;;;;24.40;10.10;;;7.90;87.20;;;;;;5065316;28;20197;-76
2021/12/28 09:19:38;;;;;;;25.17;10.07;;;7.90;87.10;;;;;;5063173;28;20199;-76
2021/12/28 09:22:06;;;;;;;25.77;10.17;;;7.90;87.10;;;;;;5064499;28;20291;-77
2021/12/28 09:24:35;;;;;;;25.77;10.93;;;7.90;87.10;;;;;;5063790;28;20193;-76
2021/12/28 09:27:13;;;;;;;26.63;11.40;;;7.90;87.00;;;;;;5064866;28;20285;-76
2021/12/28 09:29:43;;;;;;;26.47;11.67;;;7.90;87.10;;;;;;5063146;28;20235;-76
2021/12/28 09:32:18;;;;;;;28.40;10.87;;;7.90;86.90;;;;;;5075890;28;20200;-76
2021/12/28 09:34:49;;;;;;;24.43;10.90;;;7.90;86.90;;;;;;5064841;28;20216;-76
2021/12/28 09:37:19;;;;;;;26.07;12.23;;;8.00;87.00;;;;;;5044595;28;20194;-77
2021/12/28 09:39:48;;;;;;;33.37;13.87;;;8.00;86.90;;;;;;5052266;28;20196;-77
2021/12/28 09:42:18;;;;;;;36.23;15.07;;;8.00;86.90;;;;;;5063339;28;20274;-77
2021/12/28 09:44:50;;;;;;;28.93;13.87;;;8.00;86.90;;;;;;5063334;28;20491;-77
2021/12/28 09:47:19;;;;;;;24.53;12.00;;;8.00;86.90;;;;;;5065011;28;20204;-77
2021/12/28 09:49:48;;;;;;;21.67;11.07;;;8.00;87.00;;;;;;5064239;28;20193;-77
2021/12/28 09:52:18;;;;;;;19.50;10.93;;;8.10;87.00;;;;;;5062992;28;20251;-77
2021/12/28 09:54:47;;;;;;;24.97;10.90;;;8.10;86.80;;;;;;5064565;28;20265;-77
2021/12/28 09:57:17;;;;;;;23.13;11.33;;;8.10;86.40;;;;;;5065349;28;20197;-77
2021/12/28 09:59:47;;;;;;;20.57;11.43;;;8.10;86.20;;;;;;5064833;28;20197;-77
2021/12/28 10:02:16;;;;;;;22.30;12.00;;;8.10;87.10;;;;;;5060029;28;20223;-76
2021/12/28 10:04:56;;;;;;;25.13;11.50;;;8.10;86.80;;;;;;5043328;28;20225;-77
2021/12/28 10:07:30;;;;;;;24.67;12.73;;;8.10;86.60;;;;;;5046672;28;20240;-77
2021/12/28 10:09:59;;;;;;;28.80;12.73;;;8.10;86.50;;;;;;5050517;28;20197;-77
2021/12/28 10:12:31;;;;;;;22.57;11.23;;;8.10;86.60;;;;;;5064325;28;20824;-77
2021/12/28 10:15:01;;;;;;;20.13;11.13;;;8.10;86.60;;;;;;5064781;28;20567;-77
2021/12/28 10:17:31;;;;;;;25.63;11.50;;;8.10;86.60;;;;;;5062940;28;20203;-79
2021/12/28 10:20:01;;;;;;;23.83;10.93;;;8.10;86.30;;;;;;5063337;28;20189;-81
2021/12/28 10:22:34;;;;;;;21.17;11.47;;;8.10;86.30;;;;;;5062349;28;20605;-79
2021/12/28 10:25:09;;;;;;;20.03;10.30;;;8.00;86.20;;;;;;5057293;28;20195;-78
2021/12/28 10:27:40;;;;;;;17.73;9.73;;;8.00;86.20;;;;;;5064708;28;20631;-78
2021/12/28 10:30:13;;;;;;;18.40;10.10;;;8.00;86.10;;;;;;5072495;28;20194;-78
2021/12/28 10:32:43;;;;;;;21.85;11.30;;;8.00;86.10;;;;;;5083545;28;20788;-79
2021/12/28 10:35:15;;;;;;;23.90;11.10;;;8.00;86.50;;;;;;5059508;28;20179;-80
2021/12/28 10:37:47;;;;;;;21.43;10.83;;;8.00;86.50;;;;;;5075888;28;20904;-79
2021/12/28 10:40:23;;;;;;;24.30;10.57;;;8.00;86.40;;;;;;5070959;28;20201;-79
2021/12/28 10:42:57;;;;;;;20.70;11.23;;;8.00;86.30;;;;;;5063881;28;20206;-79
2021/12/28 10:45:28;;;;;;;29.73;12.30;;;8.00;86.20;;;;;;5059109;28;20205;-79
2021/12/28 10:47:57;;;;;;;24.97;11.37;;;8.00;86.10;;;;;;5050985;28;20247;-79
2021/12/28 10:50:36;;;;;;;21.83;11.67;;;8.00;86.10;;;;;;5070505;28;20674;-76
2021/12/28 10:53:11;;;;;;;21.43;10.27;;;8.00;86.00;;;;;;5063761;28;20200;-76
2021/12/28 10:55:41;;;;;;;20.33;10.10;;;8.00;85.90;;;;;;5063139;28;20189;-76
2021/12/28 10:58:20;;;;;;;17.00;9.20;;;8.00;85.80;;;;;;5063389;28;20706;-77
2021/12/28 11:00:48;;;;;;;20.17;9.43;;;8.00;86.00;;;;;;5062857;28;20188;-76
2021/12/28 11:03:26;;;;;;;15.67;9.90;;;8.00;86.20;;;;;;5061473;28;20859;-77
2021/12/28 11:05:56;;;;;;;18.80;10.03;;;8.00;86.20;;;;;;5063283;28;20279;-77
2021/12/28 11:08:28;;;;;;;22.03;9.67;;;8.00;86.30;;;;;;5064518;28;20188;-77
2021/12/28 11:10:59;;;;;;;20.27;9.33;;;8.10;86.20;;;;;;5063939;28;20197;-78
2021/12/28 11:13:32;;;;;;;21.57;9.80;;;8.10;86.30;;;;;;5064499;28;20197;-77
2021/12/28 11:16:01;;;;;;;18.60;9.20;;;8.10;86.10;;;;;;5061923;28;20803;-77
2021/12/28 11:18:33;;;;;;;16.43;9.63;;;8.10;86.20;;;;;;5064674;28;20673;-77
2021/12/28 11:21:10;;;;;;;22.33;10.20;;;8.10;86.20;;;;;;5063974;28;20194;-76
2021/12/28 11:23:38;;;;;;;18.03;10.03;;;8.10;86.10;;;;;;5063063;28;20550;-78
2021/12/28 11:26:11;;;;;;;21.80;8.83;;;8.10;86.00;;;;;;5062791;28;20251;-77
2021/12/28 11:28:52;;;;;;;25.40;9.83;;;8.10;86.10;;;;;;5063424;28;20832;-76
2021/12/28 11:31:24;;;;;;;19.30;10.67;;;8.20;86.10;;;;;;5063110;28;20192;-77
2021/12/28 11:34:03;;;;;;;19.83;10.13;;;8.10;86.10;;;;;;5065936;28;20306;-77
2021/12/28 11:36:33;;;;;;;23.20;11.00;;;8.20;86.10;;;;;;5059178;28;20270;-77
2021/12/28 11:39:05;;;;;;;26.27;11.87;;;8.20;86.00;;;;;;5058276;28;20199;-77
2021/12/28 11:41:33;;;;;;;21.17;10.30;;;8.20;86.10;;;;;;5065186;28;20782;-76
2021/12/28 11:44:04;;;;;;;20.43;10.13;;;8.20;86.00;;;;;;5062953;28;20292;-78
2021/12/28 11:46:32;;;;;;;21.03;10.63;;;8.20;85.80;;;;;;5064415;28;20177;-76
2021/12/28 11:49:01;;;;;;;19.70;10.07;;;8.20;85.70;;;;;;5065886;28;20199;-77
2021/12/28 11:51:29;;;;;;;26.90;10.53;;;8.20;85.70;;;;;;5069537;28;20196;-77
2021/12/28 11:54:00;;;;;;;20.23;10.17;;;8.20;85.70;;;;;;5068060;28;20191;-77
2021/12/28 11:56:30;;;;;;;28.37;11.80;;;8.30;85.80;;;;;;5063233;28;20198;-77
2021/12/28 11:59:07;;;;;;;23.53;11.07;;;8.30;85.70;;;;;;5058030;28;20206;-77
2021/12/28 12:01:57;;;;;;;22.87;10.53;;;8.30;85.70;;;;;;5061892;28;20189;-76
2021/12/28 12:04:56;;;;;;;22.10;10.70;;;8.30;85.50;;;;;;5055105;28;20275;-76
2021/12/28 12:07:31;;;;;;;22.37;10.80;;;8.30;85.50;;;;;;5072142;28;20197;-76
2021/12/28 12:10:07;;;;;;;25.43;11.70;;;8.30;85.50;;;;;;5050137;28;20198;-75
2021/12/28 12:13:19;;;;;;;23.93;11.97;;;8.30;85.60;;;;;;5063352;28;20201;-76
2021/12/28 12:15:51;;;;;;;24.53;11.33;;;8.30;85.50;;;;;;5057929;28;20193;-76
2021/12/28 12:18:24;;;;;;;23.83;11.53;;;8.40;85.50;;;;;;5057740;28;20186;-76
2021/12/28 12:20:57;;;;;;;26.87;12.07;;;8.50;85.50;;;;;;5063697;28;20185;-77
2021/12/28 12:23:40;;;;;;;24.17;11.67;;;8.40;85.40;;;;;;5055372;28;20210;-77
2021/12/28 12:26:11;;;;;;;20.37;10.60;;;8.50;85.30;;;;;;5064809;28;20205;-76
2021/12/28 12:28:54;;;;;;;20.23;10.63;;;8.50;85.20;;;;;;5061072;28;20645;-76
2021/12/28 12:31:36;;;;;;;21.70;11.00;;;8.50;85.10;;;;;;5054842;28;20768;-76
2021/12/28 12:34:06;;;;;;;21.77;10.67;;;8.50;84.70;;;;;;5056347;28;20294;-76
2021/12/28 12:36:41;;;;;;;21.07;11.07;;;8.50;84.70;;;;;;5055223;28;20190;-76
2021/12/28 12:39:11;;;;;;;22.13;11.43;;;8.50;84.80;;;;;;5052020;28;20239;-75
2021/12/28 12:41:50;;;;;;;23.07;11.77;;;8.50;84.80;;;;;;5058844;28;20186;-76
2021/12/28 12:44:21;;;;;;;24.37;12.20;;;8.60;84.80;;;;;;5068708;28;20210;-75
2021/12/28 12:46:52;;;;;;;28.23;13.47;;;8.50;84.70;;;;;;5068541;28;20178;-76
2021/12/28 12:49:28;;;;;;;21.90;11.53;;;8.50;84.70;;;;;;5067287;28;20753;-76
2021/12/28 12:52:02;;;;;;;25.70;12.20;;;8.50;84.60;;;;;;5065338;28;20177;-76
2021/12/28 12:54:41;;;;;;;23.63;11.25;;;8.50;84.60;;;;;;5065579;28;21204;-75
2021/12/28 12:57:22;;;;;;;27.37;13.20;;;8.50;84.70;;;;;;5067362;28;20259;-76
2021/12/28 12:59:54;;;;;;;25.13;13.17;;;8.50;84.40;;;;;;5067539;28;20190;-75